sensor_id;sensor_type;location;lat;lon;timestamp;P1;durP1;ratioP1;P2;durP2;ratioP2
49730;SDS011;35622;52.008;5.426;2022-12-18T00:00:41;69.27;;;27.53;;
49730;SDS011;35622;52.008;5.426;2022-12-18T00:03:09;66.20;;;26.40;;
49730;SDS011;35622;52.008;5.426;2022-12-18T00:05:35;67.87;;;26.10;;
49730;SDS011;35622;52.008;5.426;2022-12-18T00:08:01;76.47;;;28.90;;
49730;SDS011;35622;52.008;5.426;2022-12-18T00:10:28;73.60;;;27.97;;
49730;SDS011;35622;52.008;5.426;2022-12-18T00:12:53;71.72;;;27.42;;
49730;SDS011;35622;52.008;5.426;2022-12-18T00:15:19;70.33;;;27.77;;
49730;SDS011;35622;52.008;5.426;2022-12-18T00:17:45;65.27;;;25.73;;
49730;SDS011;35622;52.008;5.426;2022-12-18T00:20:10;58.27;;;25.13;;
49730;SDS011;35622;52.008;5.426;2022-12-18T00:22:36;66.77;;;24.97;;
49730;SDS011;35622;52.008;5.426;2022-12-18T00:25:02;62.93;;;25.40;;
49730;SDS011;35622;52.008;5.426;2022-12-18T00:27:28;59.57;;;24.57;;
49730;SDS011;35622;52.008;5.426;2022-12-18T00:29:53;55.07;;;22.87;;
49730;SDS011;35622;52.008;5.426;2022-12-18T00:32:19;62.57;;;24.27;;
49730;SDS011;35622;52.008;5.426;2022-12-18T00:34:45;60.37;;;24.10;;
49730;SDS011;35622;52.008;5.426;2022-12-18T00:37:10;60.67;;;25.17;;
49730;SDS011;35622;52.008;5.426;2022-12-18T00:39:36;60.90;;;25.47;;
49730;SDS011;35622;52.008;5.426;2022-12-18T00:42:01;58.10;;;24.63;;
49730;SDS011;35622;52.008;5.426;2022-12-18T00:44:45;58.37;;;25.17;;
49730;SDS011;35622;52.008;5.426;2022-12-18T00:47:11;62.50;;;24.93;;
49730;SDS011;35622;52.008;5.426;2022-12-18T00:49:37;62.67;;;24.27;;
49730;SDS011;35622;52.008;5.426;2022-12-18T00:52:02;60.63;;;24.07;;
49730;SDS011;35622;52.008;5.426;2022-12-18T00:54:28;60.80;;;23.67;;
49730;SDS011;35622;52.008;5.426;2022-12-18T00:56:53;58.67;;;23.73;;
49730;SDS011;35622;52.008;5.426;2022-12-18T00:59:20;57.20;;;24.03;;
49730;SDS011;35622;52.008;5.426;2022-12-18T01:01:46;60.13;;;24.23;;
49730;SDS011;35622;52.008;5.426;2022-12-18T01:04:12;63.00;;;24.77;;
49730;SDS011;35622;52.008;5.426;2022-12-18T01:06:37;61.07;;;24.20;;
49730;SDS011;35622;52.008;5.426;2022-12-18T01:09:03;62.23;;;25.37;;
49730;SDS011;35622;52.008;5.426;2022-12-18T01:11:29;59.50;;;25.07;;
49730;SDS011;35622;52.008;5.426;2022-12-18T01:13:55;60.03;;;24.57;;
49730;SDS011;35622;52.008;5.426;2022-12-18T01:16:21;59.40;;;23.90;;
49730;SDS011;35622;52.008;5.426;2022-12-18T01:18:50;65.90;;;24.37;;
49730;SDS011;35622;52.008;5.426;2022-12-18T01:21:17;60.93;;;24.53;;
49730;SDS011;35622;52.008;5.426;2022-12-18T01:23:43;58.77;;;24.27;;
49730;SDS011;35622;52.008;5.426;2022-12-18T01:26:09;57.30;;;24.10;;
49730;SDS011;35622;52.008;5.426;2022-12-18T01:28:37;62.97;;;25.00;;
49730;SDS011;35622;52.008;5.426;2022-12-18T01:31:10;62.33;;;24.43;;
49730;SDS011;35622;52.008;5.426;2022-12-18T01:33:39;63.10;;;24.67;;
49730;SDS011;35622;52.008;5.426;2022-12-18T01:36:05;61.47;;;24.13;;
49730;SDS011;35622;52.008;5.426;2022-12-18T01:38:30;60.67;;;23.70;;
49730;SDS011;35622;52.008;5.426;2022-12-18T01:40:57;59.70;;;23.93;;
49730;SDS011;35622;52.008;5.426;2022-12-18T01:43:40;64.47;;;25.93;;
49730;SDS011;35622;52.008;5.426;2022-12-18T01:46:10;58.60;;;24.77;;
49730;SDS011;35622;52.008;5.426;2022-12-18T01:48:36;60.07;;;24.50;;
49730;SDS011;35622;52.008;5.426;2022-12-18T01:51:03;64.07;;;24.27;;
49730;SDS011;35622;52.008;5.426;2022-12-18T01:53:30;61.63;;;24.53;;
49730;SDS011;35622;52.008;5.426;2022-12-18T01:55:56;59.93;;;23.63;;
49730;SDS011;35622;52.008;5.426;2022-12-18T01:58:27;55.23;;;23.33;;
49730;SDS011;35622;52.008;5.426;2022-12-18T02:00:59;57.37;;;22.53;;
49730;SDS011;35622;52.008;5.426;2022-12-18T02:03:25;56.43;;;22.93;;
49730;SDS011;35622;52.008;5.426;2022-12-18T02:05:54;56.67;;;23.20;;
49730;SDS011;35622;52.008;5.426;2022-12-18T02:13:45;56.70;;;23.50;;
49730;SDS011;35622;52.008;5.426;2022-12-18T02:16:25;57.63;;;22.10;;
49730;SDS011;35622;52.008;5.426;2022-12-18T02:19:06;57.67;;;23.20;;
49730;SDS011;35622;52.008;5.426;2022-12-18T02:27:24;56.83;;;22.20;;
49730;SDS011;35622;52.008;5.426;2022-12-18T02:29:51;51.20;;;21.80;;
49730;SDS011;35622;52.008;5.426;2022-12-18T02:32:22;55.73;;;23.10;;
49730;SDS011;35622;52.008;5.426;2022-12-18T02:34:55;54.17;;;22.30;;
49730;SDS011;35622;52.008;5.426;2022-12-18T02:37:22;55.50;;;21.87;;
49730;SDS011;35622;52.008;5.426;2022-12-18T02:39:50;61.70;;;23.73;;
49730;SDS011;35622;52.008;5.426;2022-12-18T02:42:19;52.10;;;22.10;;
49730;SDS011;35622;52.008;5.426;2022-12-18T02:44:49;52.07;;;22.27;;
49730;SDS011;35622;52.008;5.426;2022-12-18T02:47:17;50.33;;;21.53;;
49730;SDS011;35622;52.008;5.426;2022-12-18T03:01:19;48.50;;;20.43;;
49730;SDS011;35622;52.008;5.426;2022-12-18T03:06:25;53.13;;;21.03;;
49730;SDS011;35622;52.008;5.426;2022-12-18T03:08:56;49.33;;;20.10;;
49730;SDS011;35622;52.008;5.426;2022-12-18T03:11:35;44.83;;;20.23;;
49730;SDS011;35622;52.008;5.426;2022-12-18T03:14:22;50.60;;;22.33;;
49730;SDS011;35622;52.008;5.426;2022-12-18T03:16:50;45.60;;;20.40;;
49730;SDS011;35622;52.008;5.426;2022-12-18T03:19:21;48.60;;;21.77;;
49730;SDS011;35622;52.008;5.426;2022-12-18T03:21:50;46.97;;;19.47;;
49730;SDS011;35622;52.008;5.426;2022-12-18T03:24:19;43.97;;;20.03;;
49730;SDS011;35622;52.008;5.426;2022-12-18T03:26:47;42.47;;;19.73;;
49730;SDS011;35622;52.008;5.426;2022-12-18T03:29:18;43.83;;;19.90;;
49730;SDS011;35622;52.008;5.426;2022-12-18T03:31:54;49.43;;;19.13;;
49730;SDS011;35622;52.008;5.426;2022-12-18T03:34:26;40.80;;;18.17;;
49730;SDS011;35622;52.008;5.426;2022-12-18T03:36:55;45.27;;;20.63;;
49730;SDS011;35622;52.008;5.426;2022-12-18T03:39:21;42.30;;;19.67;;
49730;SDS011;35622;52.008;5.426;2022-12-18T03:41:49;46.40;;;19.87;;
49730;SDS011;35622;52.008;5.426;2022-12-18T03:44:28;41.40;;;17.80;;
49730;SDS011;35622;52.008;5.426;2022-12-18T03:47:17;39.83;;;17.47;;
49730;SDS011;35622;52.008;5.426;2022-12-18T03:49:54;38.73;;;17.57;;
49730;SDS011;35622;52.008;5.426;2022-12-18T03:55:10;42.83;;;17.83;;
49730;SDS011;35622;52.008;5.426;2022-12-18T03:57:37;40.03;;;17.90;;
49730;SDS011;35622;52.008;5.426;2022-12-18T04:00:09;36.10;;;16.83;;
49730;SDS011;35622;52.008;5.426;2022-12-18T04:02:37;33.33;;;15.90;;
49730;SDS011;35622;52.008;5.426;2022-12-18T04:05:08;37.20;;;16.43;;
49730;SDS011;35622;52.008;5.426;2022-12-18T04:07:35;34.60;;;16.90;;
49730;SDS011;35622;52.008;5.426;2022-12-18T04:10:02;39.73;;;17.17;;
49730;SDS011;35622;52.008;5.426;2022-12-18T04:12:30;36.03;;;16.37;;
49730;SDS011;35622;52.008;5.426;2022-12-18T04:14:55;33.40;;;16.37;;
49730;SDS011;35622;52.008;5.426;2022-12-18T04:17:21;39.43;;;17.03;;
49730;SDS011;35622;52.008;5.426;2022-12-18T04:19:47;34.73;;;16.23;;
49730;SDS011;35622;52.008;5.426;2022-12-18T04:22:13;31.80;;;15.40;;
49730;SDS011;35622;52.008;5.426;2022-12-18T04:24:39;35.73;;;17.00;;
49730;SDS011;35622;52.008;5.426;2022-12-18T04:27:04;37.87;;;17.33;;
49730;SDS011;35622;52.008;5.426;2022-12-18T04:29:30;31.73;;;15.57;;
49730;SDS011;35622;52.008;5.426;2022-12-18T04:31:56;36.63;;;16.80;;
49730;SDS011;35622;52.008;5.426;2022-12-18T04:34:21;39.83;;;17.47;;
49730;SDS011;35622;52.008;5.426;2022-12-18T04:36:47;31.13;;;15.67;;
49730;SDS011;35622;52.008;5.426;2022-12-18T04:39:13;31.87;;;15.57;;
49730;SDS011;35622;52.008;5.426;2022-12-18T04:41:38;35.23;;;17.00;;
49730;SDS011;35622;52.008;5.426;2022-12-18T04:44:04;33.03;;;16.10;;
49730;SDS011;35622;52.008;5.426;2022-12-18T04:46:30;35.80;;;16.43;;
49730;SDS011;35622;52.008;5.426;2022-12-18T04:48:55;28.50;;;15.20;;
49730;SDS011;35622;52.008;5.426;2022-12-18T04:51:21;31.80;;;16.53;;
49730;SDS011;35622;52.008;5.426;2022-12-18T04:53:47;34.13;;;16.43;;
49730;SDS011;35622;52.008;5.426;2022-12-18T04:56:13;33.07;;;16.03;;
49730;SDS011;35622;52.008;5.426;2022-12-18T04:58:41;31.67;;;15.43;;
49730;SDS011;35622;52.008;5.426;2022-12-18T05:01:08;31.03;;;15.37;;
49730;SDS011;35622;52.008;5.426;2022-12-18T05:03:35;32.40;;;16.00;;
49730;SDS011;35622;52.008;5.426;2022-12-18T05:06:01;30.77;;;15.33;;
49730;SDS011;35622;52.008;5.426;2022-12-18T05:08:28;32.90;;;15.07;;
49730;SDS011;35622;52.008;5.426;2022-12-18T05:11:00;35.67;;;16.60;;
49730;SDS011;35622;52.008;5.426;2022-12-18T05:13:31;40.78;;;22.77;;
49730;SDS011;35622;52.008;5.426;2022-12-18T05:15:57;33.00;;;16.87;;
49730;SDS011;35622;52.008;5.426;2022-12-18T05:18:23;34.80;;;17.10;;
49730;SDS011;35622;52.008;5.426;2022-12-18T05:20:52;28.30;;;16.07;;
49730;SDS011;35622;52.008;5.426;2022-12-18T05:23:19;28.40;;;14.70;;
49730;SDS011;35622;52.008;5.426;2022-12-18T05:26:04;29.73;;;14.50;;
49730;SDS011;35622;52.008;5.426;2022-12-18T05:28:31;28.07;;;15.17;;
49730;SDS011;35622;52.008;5.426;2022-12-18T05:31:00;27.67;;;14.73;;
49730;SDS011;35622;52.008;5.426;2022-12-18T05:33:28;30.67;;;15.73;;
49730;SDS011;35622;52.008;5.426;2022-12-18T05:35:57;29.07;;;14.20;;
49730;SDS011;35622;52.008;5.426;2022-12-18T05:38:28;29.57;;;15.00;;
49730;SDS011;35622;52.008;5.426;2022-12-18T05:40:54;29.63;;;15.10;;
49730;SDS011;35622;52.008;5.426;2022-12-18T05:43:21;28.90;;;14.77;;
49730;SDS011;35622;52.008;5.426;2022-12-18T05:45:48;29.57;;;15.57;;
49730;SDS011;35622;52.008;5.426;2022-12-18T05:48:15;29.13;;;14.80;;
49730;SDS011;35622;52.008;5.426;2022-12-18T05:50:42;26.60;;;14.43;;
49730;SDS011;35622;52.008;5.426;2022-12-18T05:53:10;28.30;;;14.47;;
49730;SDS011;35622;52.008;5.426;2022-12-18T05:55:37;28.20;;;14.97;;
49730;SDS011;35622;52.008;5.426;2022-12-18T05:58:04;28.43;;;14.13;;
49730;SDS011;35622;52.008;5.426;2022-12-18T06:00:32;24.43;;;13.83;;
49730;SDS011;35622;52.008;5.426;2022-12-18T06:02:59;29.97;;;14.87;;
49730;SDS011;35622;52.008;5.426;2022-12-18T06:05:25;25.57;;;14.77;;
49730;SDS011;35622;52.008;5.426;2022-12-18T06:07:51;23.63;;;13.10;;
49730;SDS011;35622;52.008;5.426;2022-12-18T06:10:17;24.83;;;13.40;;
49730;SDS011;35622;52.008;5.426;2022-12-18T06:12:43;25.60;;;13.50;;
49730;SDS011;35622;52.008;5.426;2022-12-18T06:15:09;25.10;;;13.80;;
49730;SDS011;35622;52.008;5.426;2022-12-18T06:17:36;24.00;;;12.63;;
49730;SDS011;35622;52.008;5.426;2022-12-18T06:20:02;24.97;;;13.33;;
49730;SDS011;35622;52.008;5.426;2022-12-18T06:22:29;25.17;;;12.37;;
49730;SDS011;35622;52.008;5.426;2022-12-18T06:24:56;25.70;;;13.17;;
49730;SDS011;35622;52.008;5.426;2022-12-18T06:27:21;22.53;;;12.33;;
49730;SDS011;35622;52.008;5.426;2022-12-18T06:29:47;25.03;;;13.30;;
49730;SDS011;35622;52.008;5.426;2022-12-18T06:32:12;24.57;;;13.03;;
49730;SDS011;35622;52.008;5.426;2022-12-18T06:34:38;23.90;;;12.07;;
49730;SDS011;35622;52.008;5.426;2022-12-18T06:37:03;21.87;;;11.87;;
49730;SDS011;35622;52.008;5.426;2022-12-18T06:39:29;23.40;;;12.23;;
49730;SDS011;35622;52.008;5.426;2022-12-18T06:41:55;23.87;;;12.57;;
49730;SDS011;35622;52.008;5.426;2022-12-18T06:44:20;23.23;;;12.77;;
49730;SDS011;35622;52.008;5.426;2022-12-18T06:46:47;27.30;;;13.17;;
49730;SDS011;35622;52.008;5.426;2022-12-18T06:49:12;23.87;;;12.73;;
49730;SDS011;35622;52.008;5.426;2022-12-18T06:51:38;21.43;;;11.67;;
49730;SDS011;35622;52.008;5.426;2022-12-18T06:54:04;21.87;;;11.90;;
49730;SDS011;35622;52.008;5.426;2022-12-18T06:56:29;23.63;;;12.33;;
49730;SDS011;35622;52.008;5.426;2022-12-18T06:58:55;22.83;;;12.37;;
49730;SDS011;35622;52.008;5.426;2022-12-18T07:01:21;22.00;;;12.03;;
49730;SDS011;35622;52.008;5.426;2022-12-18T07:03:51;20.13;;;12.03;;
49730;SDS011;35622;52.008;5.426;2022-12-18T07:06:21;22.60;;;12.50;;
49730;SDS011;35622;52.008;5.426;2022-12-18T07:08:48;24.53;;;13.40;;
49730;SDS011;35622;52.008;5.426;2022-12-18T07:11:15;26.23;;;12.47;;
49730;SDS011;35622;52.008;5.426;2022-12-18T07:13:41;23.47;;;12.77;;
49730;SDS011;35622;52.008;5.426;2022-12-18T07:16:08;21.53;;;12.53;;
49730;SDS011;35622;52.008;5.426;2022-12-18T07:18:35;20.83;;;12.10;;
49730;SDS011;35622;52.008;5.426;2022-12-18T07:21:05;24.17;;;12.93;;
49730;SDS011;35622;52.008;5.426;2022-12-18T07:23:32;24.30;;;12.07;;
49730;SDS011;35622;52.008;5.426;2022-12-18T07:26:06;21.90;;;12.60;;
49730;SDS011;35622;52.008;5.426;2022-12-18T07:28:34;22.23;;;12.73;;
49730;SDS011;35622;52.008;5.426;2022-12-18T07:31:08;24.73;;;13.83;;
49730;SDS011;35622;52.008;5.426;2022-12-18T07:33:38;22.47;;;13.07;;
49730;SDS011;35622;52.008;5.426;2022-12-18T07:36:04;22.50;;;13.17;;
49730;SDS011;35622;52.008;5.426;2022-12-18T07:38:31;22.13;;;13.23;;
49730;SDS011;35622;52.008;5.426;2022-12-18T07:41:11;24.27;;;13.60;;
49730;SDS011;35622;52.008;5.426;2022-12-18T07:43:38;24.87;;;13.33;;
49730;SDS011;35622;52.008;5.426;2022-12-18T07:46:04;25.23;;;14.67;;
49730;SDS011;35622;52.008;5.426;2022-12-18T07:48:30;23.47;;;12.77;;
49730;SDS011;35622;52.008;5.426;2022-12-18T07:51:00;26.10;;;13.97;;
49730;SDS011;35622;52.008;5.426;2022-12-18T07:53:26;21.60;;;12.70;;
49730;SDS011;35622;52.008;5.426;2022-12-18T07:55:56;24.43;;;13.53;;
49730;SDS011;35622;52.008;5.426;2022-12-18T07:58:26;26.40;;;14.10;;
49730;SDS011;35622;52.008;5.426;2022-12-18T08:00:52;20.63;;;13.13;;
49730;SDS011;35622;52.008;5.426;2022-12-18T08:03:18;23.77;;;13.13;;
49730;SDS011;35622;52.008;5.426;2022-12-18T08:05:43;24.07;;;13.50;;
49730;SDS011;35622;52.008;5.426;2022-12-18T08:08:09;23.97;;;12.77;;
49730;SDS011;35622;52.008;5.426;2022-12-18T08:10:35;23.33;;;12.70;;
49730;SDS011;35622;52.008;5.426;2022-12-18T08:13:01;22.97;;;13.17;;
49730;SDS011;35622;52.008;5.426;2022-12-18T08:15:27;26.07;;;13.30;;
49730;SDS011;35622;52.008;5.426;2022-12-18T08:17:55;26.77;;;13.53;;
49730;SDS011;35622;52.008;5.426;2022-12-18T08:20:21;21.17;;;12.80;;
49730;SDS011;35622;52.008;5.426;2022-12-18T08:22:47;23.73;;;13.83;;
49730;SDS011;35622;52.008;5.426;2022-12-18T08:25:12;23.10;;;13.67;;
49730;SDS011;35622;52.008;5.426;2022-12-18T08:27:38;26.93;;;14.13;;
49730;SDS011;35622;52.008;5.426;2022-12-18T08:30:04;26.47;;;13.93;;
49730;SDS011;35622;52.008;5.426;2022-12-18T08:32:30;21.67;;;13.30;;
49730;SDS011;35622;52.008;5.426;2022-12-18T08:34:57;21.17;;;12.87;;
49730;SDS011;35622;52.008;5.426;2022-12-18T08:37:23;22.50;;;13.53;;
49730;SDS011;35622;52.008;5.426;2022-12-18T08:39:49;23.80;;;12.90;;
49730;SDS011;35622;52.008;5.426;2022-12-18T08:42:14;22.30;;;13.07;;
49730;SDS011;35622;52.008;5.426;2022-12-18T08:45:13;23.37;;;12.73;;
49730;SDS011;35622;52.008;5.426;2022-12-18T08:47:39;24.10;;;13.30;;
49730;SDS011;35622;52.008;5.426;2022-12-18T08:50:04;22.97;;;12.63;;
49730;SDS011;35622;52.008;5.426;2022-12-18T08:52:31;22.00;;;12.20;;
49730;SDS011;35622;52.008;5.426;2022-12-18T08:54:57;22.00;;;12.10;;
49730;SDS011;35622;52.008;5.426;2022-12-18T08:57:23;23.23;;;12.30;;
49730;SDS011;35622;52.008;5.426;2022-12-18T08:59:48;23.07;;;13.43;;
49730;SDS011;35622;52.008;5.426;2022-12-18T09:02:14;22.57;;;13.37;;
49730;SDS011;35622;52.008;5.426;2022-12-18T09:04:40;21.83;;;12.40;;
49730;SDS011;35622;52.008;5.426;2022-12-18T09:07:06;23.53;;;12.73;;
49730;SDS011;35622;52.008;5.426;2022-12-18T09:09:31;22.40;;;12.30;;
49730;SDS011;35622;52.008;5.426;2022-12-18T09:11:57;22.40;;;13.17;;
49730;SDS011;35622;52.008;5.426;2022-12-18T09:14:23;23.37;;;12.60;;
49730;SDS011;35622;52.008;5.426;2022-12-18T09:16:49;21.87;;;12.53;;
49730;SDS011;35622;52.008;5.426;2022-12-18T09:19:14;20.30;;;11.50;;
49730;SDS011;35622;52.008;5.426;2022-12-18T09:21:40;19.60;;;12.07;;
49730;SDS011;35622;52.008;5.426;2022-12-18T09:24:05;23.90;;;13.20;;
49730;SDS011;35622;52.008;5.426;2022-12-18T09:26:31;22.43;;;13.10;;
49730;SDS011;35622;52.008;5.426;2022-12-18T09:28:57;20.70;;;12.70;;
49730;SDS011;35622;52.008;5.426;2022-12-18T09:31:23;21.37;;;12.67;;
49730;SDS011;35622;52.008;5.426;2022-12-18T09:33:49;22.33;;;12.17;;
49730;SDS011;35622;52.008;5.426;2022-12-18T09:36:16;19.90;;;11.47;;
49730;SDS011;35622;52.008;5.426;2022-12-18T09:38:42;18.90;;;11.70;;
49730;SDS011;35622;52.008;5.426;2022-12-18T09:41:17;18.13;;;12.00;;
49730;SDS011;35622;52.008;5.426;2022-12-18T09:44:10;21.63;;;11.67;;
49730;SDS011;35622;52.008;5.426;2022-12-18T09:46:37;19.10;;;11.37;;
49730;SDS011;35622;52.008;5.426;2022-12-18T09:49:11;18.47;;;11.57;;
49730;SDS011;35622;52.008;5.426;2022-12-18T09:51:41;18.80;;;11.27;;
49730;SDS011;35622;52.008;5.426;2022-12-18T09:54:16;19.97;;;11.90;;
49730;SDS011;35622;52.008;5.426;2022-12-18T09:56:46;20.60;;;12.00;;
49730;SDS011;35622;52.008;5.426;2022-12-18T09:59:26;17.63;;;11.53;;
49730;SDS011;35622;52.008;5.426;2022-12-18T10:01:57;19.43;;;11.60;;
49730;SDS011;35622;52.008;5.426;2022-12-18T10:04:23;18.70;;;11.10;;
49730;SDS011;35622;52.008;5.426;2022-12-18T10:06:52;16.43;;;10.87;;
49730;SDS011;35622;52.008;5.426;2022-12-18T10:15:00;19.60;;;11.07;;
49730;SDS011;35622;52.008;5.426;2022-12-18T10:20:47;18.17;;;10.47;;
49730;SDS011;35622;52.008;5.426;2022-12-18T10:23:22;18.13;;;10.63;;
49730;SDS011;35622;52.008;5.426;2022-12-18T10:26:13;19.60;;;10.93;;
49730;SDS011;35622;52.008;5.426;2022-12-18T10:28:40;16.87;;;10.37;;
49730;SDS011;35622;52.008;5.426;2022-12-18T10:33:42;15.50;;;10.03;;
49730;SDS011;35622;52.008;5.426;2022-12-18T10:36:08;20.73;;;11.77;;
49730;SDS011;35622;52.008;5.426;2022-12-18T10:38:34;18.60;;;10.83;;
49730;SDS011;35622;52.008;5.426;2022-12-18T10:44:10;20.00;;;10.97;;
49730;SDS011;35622;52.008;5.426;2022-12-18T10:46:37;16.13;;;9.70;;
49730;SDS011;35622;52.008;5.426;2022-12-18T10:49:03;17.70;;;10.43;;
49730;SDS011;35622;52.008;5.426;2022-12-18T10:51:30;18.87;;;10.97;;
49730;SDS011;35622;52.008;5.426;2022-12-18T10:56:30;16.93;;;10.33;;
49730;SDS011;35622;52.008;5.426;2022-12-18T10:59:05;20.07;;;11.37;;
49730;SDS011;35622;52.008;5.426;2022-12-18T11:04:50;17.20;;;10.27;;
49730;SDS011;35622;52.008;5.426;2022-12-18T11:07:16;16.93;;;9.87;;
49730;SDS011;35622;52.008;5.426;2022-12-18T11:09:42;17.47;;;10.60;;
49730;SDS011;35622;52.008;5.426;2022-12-18T11:12:15;19.80;;;11.37;;
49730;SDS011;35622;52.008;5.426;2022-12-18T11:14:45;19.00;;;11.20;;
49730;SDS011;35622;52.008;5.426;2022-12-18T11:17:22;20.83;;;10.87;;
49730;SDS011;35622;52.008;5.426;2022-12-18T11:19:53;17.33;;;10.07;;
49730;SDS011;35622;52.008;5.426;2022-12-18T11:25:01;17.43;;;10.73;;
49730;SDS011;35622;52.008;5.426;2022-12-18T11:27:37;16.07;;;10.10;;
49730;SDS011;35622;52.008;5.426;2022-12-18T11:37:59;17.33;;;11.27;;
49730;SDS011;35622;52.008;5.426;2022-12-18T11:40:38;15.97;;;9.43;;
49730;SDS011;35622;52.008;5.426;2022-12-18T11:43:10;14.17;;;9.83;;
49730;SDS011;35622;52.008;5.426;2022-12-18T11:46:03;17.30;;;10.23;;
49730;SDS011;35622;52.008;5.426;2022-12-18T11:48:32;17.10;;;10.00;;
49730;SDS011;35622;52.008;5.426;2022-12-18T11:51:03;16.03;;;9.70;;
49730;SDS011;35622;52.008;5.426;2022-12-18T11:53:34;15.63;;;9.57;;
49730;SDS011;35622;52.008;5.426;2022-12-18T12:06:55;16.77;;;9.97;;
49730;SDS011;35622;52.008;5.426;2022-12-18T12:23:41;17.20;;;10.33;;
49730;SDS011;35622;52.008;5.426;2022-12-18T12:29:06;18.73;;;10.47;;
49730;SDS011;35622;52.008;5.426;2022-12-18T12:34:58;17.10;;;10.40;;
49730;SDS011;35622;52.008;5.426;2022-12-18T12:40:23;17.17;;;10.50;;
49730;SDS011;35622;52.008;5.426;2022-12-18T12:43:16;17.03;;;9.77;;
49730;SDS011;35622;52.008;5.426;2022-12-18T12:46:00;18.20;;;10.67;;
49730;SDS011;35622;52.008;5.426;2022-12-18T12:48:36;18.03;;;10.90;;
49730;SDS011;35622;52.008;5.426;2022-12-18T12:51:25;20.13;;;10.67;;
49730;SDS011;35622;52.008;5.426;2022-12-18T12:53:58;19.07;;;11.37;;
49730;SDS011;35622;52.008;5.426;2022-12-18T12:56:29;21.03;;;12.00;;
49730;SDS011;35622;52.008;5.426;2022-12-18T12:59:21;22.33;;;11.83;;
49730;SDS011;35622;52.008;5.426;2022-12-18T13:04:47;20.33;;;10.73;;
49730;SDS011;35622;52.008;5.426;2022-12-18T13:07:24;21.23;;;11.83;;
49730;SDS011;35622;52.008;5.426;2022-12-18T13:12:53;16.87;;;9.93;;
49730;SDS011;35622;52.008;5.426;2022-12-18T13:15:44;19.33;;;11.50;;
49730;SDS011;35622;52.008;5.426;2022-12-18T13:18:19;20.20;;;11.50;;
49730;SDS011;35622;52.008;5.426;2022-12-18T13:20:47;18.53;;;10.77;;
49730;SDS011;35622;52.008;5.426;2022-12-18T13:23:38;18.37;;;10.70;;
49730;SDS011;35622;52.008;5.426;2022-12-18T13:30:59;18.53;;;11.00;;
49730;SDS011;35622;52.008;5.426;2022-12-18T13:35:53;18.67;;;10.87;;
49730;SDS011;35622;52.008;5.426;2022-12-18T13:38:39;19.33;;;11.70;;
49730;SDS011;35622;52.008;5.426;2022-12-18T13:51:39;20.23;;;12.20;;
49730;SDS011;35622;52.008;5.426;2022-12-18T13:56:53;18.93;;;12.23;;
49730;SDS011;35622;52.008;5.426;2022-12-18T13:59:23;21.17;;;11.90;;
49730;SDS011;35622;52.008;5.426;2022-12-18T14:04:24;19.97;;;12.27;;
49730;SDS011;35622;52.008;5.426;2022-12-18T14:06:55;18.27;;;11.73;;
49730;SDS011;35622;52.008;5.426;2022-12-18T14:09:36;19.57;;;11.90;;
49730;SDS011;35622;52.008;5.426;2022-12-18T14:12:05;22.00;;;11.83;;
49730;SDS011;35622;52.008;5.426;2022-12-18T14:14:56;20.67;;;12.33;;
49730;SDS011;35622;52.008;5.426;2022-12-18T14:17:21;22.67;;;12.03;;
49730;SDS011;35622;52.008;5.426;2022-12-18T14:19:48;22.57;;;12.23;;
49730;SDS011;35622;52.008;5.426;2022-12-18T14:22:23;17.83;;;11.17;;
49730;SDS011;35622;52.008;5.426;2022-12-18T14:25:14;20.17;;;11.57;;
49730;SDS011;35622;52.008;5.426;2022-12-18T14:27:47;20.27;;;11.93;;
49730;SDS011;35622;52.008;5.426;2022-12-18T14:30:43;19.10;;;11.57;;
49730;SDS011;35622;52.008;5.426;2022-12-18T14:33:11;18.10;;;11.40;;
49730;SDS011;35622;52.008;5.426;2022-12-18T14:35:42;19.67;;;11.70;;
49730;SDS011;35622;52.008;5.426;2022-12-18T14:43:23;23.13;;;11.37;;
49730;SDS011;35622;52.008;5.426;2022-12-18T14:45:49;20.60;;;11.17;;
49730;SDS011;35622;52.008;5.426;2022-12-18T14:51:06;19.63;;;11.47;;
49730;SDS011;35622;52.008;5.426;2022-12-18T14:53:44;22.53;;;12.23;;
49730;SDS011;35622;52.008;5.426;2022-12-18T14:56:19;21.27;;;11.83;;
49730;SDS011;35622;52.008;5.426;2022-12-18T14:58:56;19.37;;;12.00;;
49730;SDS011;35622;52.008;5.426;2022-12-18T15:03:57;22.23;;;12.47;;
49730;SDS011;35622;52.008;5.426;2022-12-18T15:06:35;17.60;;;11.17;;
49730;SDS011;35622;52.008;5.426;2022-12-18T15:09:06;20.77;;;11.77;;
49730;SDS011;35622;52.008;5.426;2022-12-18T15:11:54;19.53;;;11.47;;
49730;SDS011;35622;52.008;5.426;2022-12-18T15:14:38;20.17;;;11.97;;
49730;SDS011;35622;52.008;5.426;2022-12-18T15:17:12;22.60;;;11.73;;
49730;SDS011;35622;52.008;5.426;2022-12-18T15:19:44;21.30;;;12.20;;
49730;SDS011;35622;52.008;5.426;2022-12-18T15:22:17;21.53;;;12.53;;
49730;SDS011;35622;52.008;5.426;2022-12-18T15:24:46;22.57;;;12.33;;
49730;SDS011;35622;52.008;5.426;2022-12-18T15:27:20;24.50;;;12.80;;
49730;SDS011;35622;52.008;5.426;2022-12-18T15:29:59;19.43;;;12.47;;
49730;SDS011;35622;52.008;5.426;2022-12-18T15:32:34;23.67;;;12.33;;
49730;SDS011;35622;52.008;5.426;2022-12-18T15:37:32;22.87;;;13.43;;
49730;SDS011;35622;52.008;5.426;2022-12-18T15:39:58;22.00;;;12.83;;
49730;SDS011;35622;52.008;5.426;2022-12-18T15:42:24;23.60;;;12.80;;
49730;SDS011;35622;52.008;5.426;2022-12-18T15:45:11;22.43;;;12.17;;
49730;SDS011;35622;52.008;5.426;2022-12-18T15:47:37;21.50;;;12.30;;
49730;SDS011;35622;52.008;5.426;2022-12-18T15:50:03;21.07;;;13.07;;
49730;SDS011;35622;52.008;5.426;2022-12-18T15:52:29;25.73;;;14.03;;
49730;SDS011;35622;52.008;5.426;2022-12-18T15:54:57;24.83;;;13.67;;
49730;SDS011;35622;52.008;5.426;2022-12-18T15:57:41;27.13;;;13.43;;
49730;SDS011;35622;52.008;5.426;2022-12-18T16:00:11;21.53;;;12.63;;
49730;SDS011;35622;52.008;5.426;2022-12-18T16:02:36;22.37;;;12.93;;
49730;SDS011;35622;52.008;5.426;2022-12-18T16:05:02;23.43;;;13.67;;
49730;SDS011;35622;52.008;5.426;2022-12-18T16:07:29;23.63;;;13.27;;
49730;SDS011;35622;52.008;5.426;2022-12-18T16:09:55;25.53;;;13.30;;
49730;SDS011;35622;52.008;5.426;2022-12-18T16:12:22;22.80;;;13.47;;
49730;SDS011;35622;52.008;5.426;2022-12-18T16:14:49;24.27;;;13.00;;
49730;SDS011;35622;52.008;5.426;2022-12-18T16:17:15;23.50;;;12.50;;
49730;SDS011;35622;52.008;5.426;2022-12-18T16:19:40;24.60;;;13.70;;
49730;SDS011;35622;52.008;5.426;2022-12-18T16:22:08;24.40;;;13.47;;
49730;SDS011;35622;52.008;5.426;2022-12-18T16:24:46;22.13;;;13.63;;
49730;SDS011;35622;52.008;5.426;2022-12-18T16:27:11;25.33;;;14.17;;
49730;SDS011;35622;52.008;5.426;2022-12-18T16:29:37;26.53;;;14.83;;
49730;SDS011;35622;52.008;5.426;2022-12-18T16:32:03;22.90;;;14.27;;
49730;SDS011;35622;52.008;5.426;2022-12-18T16:34:32;24.03;;;13.97;;
49730;SDS011;35622;52.008;5.426;2022-12-18T16:37:06;25.13;;;14.00;;
49730;SDS011;35622;52.008;5.426;2022-12-18T16:39:33;27.13;;;14.43;;
49730;SDS011;35622;52.008;5.426;2022-12-18T16:41:59;23.90;;;14.10;;
49730;SDS011;35622;52.008;5.426;2022-12-18T16:44:30;23.30;;;13.17;;
49730;SDS011;35622;52.008;5.426;2022-12-18T16:46:55;25.13;;;14.10;;
49730;SDS011;35622;52.008;5.426;2022-12-18T16:49:26;24.17;;;14.90;;